createdAt,value
2023-03-10T00:00:59.151Z,98793.88
2023-03-10T00:03:32.306Z,98796.32
2023-03-10T00:06:05.730Z,98808.41
2023-03-10T00:08:38.930Z,98802.42
2023-03-10T00:11:12.370Z,98804.26
2023-03-10T00:13:47.029Z,98792.52
2023-03-10T00:16:26.628Z,98805.81
2023-03-10T00:19:00.978Z,98805.73
2023-03-10T00:21:34.916Z,98817.33
2023-03-10T00:24:07.479Z,98808.75
2023-03-10T00:26:41.739Z,98798.77
2023-03-10T00:29:16.681Z,98798.22
2023-03-10T00:31:48.428Z,98790.59
2023-03-10T00:34:21.009Z,98802.44
2023-03-10T00:36:54.253Z,98803.03
2023-03-10T00:39:27.335Z,98805.84
2023-03-10T00:42:00.823Z,98802.55
2023-03-10T00:44:33.768Z,98799.72
2023-03-10T00:47:07.248Z,98795.84
2023-03-10T00:49:41.125Z,98796.64
2023-03-10T00:52:14.172Z,98799.56
2023-03-10T00:54:47.122Z,98795.52
2023-03-10T00:57:20.370Z,98799.73
2023-03-10T00:59:54.503Z,98792.11
2023-03-10T01:02:27.451Z,98798.17
2023-03-10T01:05:02.126Z,98798.19
2023-03-10T01:07:36.435Z,98794.05
2023-03-10T01:10:11.668Z,98790.58
2023-03-10T01:12:45.144Z,98791.30
2023-03-10T01:15:18.202Z,98783.36
2023-03-10T01:17:50.896Z,98792.77
2023-03-10T01:20:23.898Z,98785.41
2023-03-10T01:22:56.488Z,98772.88
2023-03-10T01:25:30.438Z,98774.72
2023-03-10T01:28:03.152Z,98776.01
2023-03-10T01:30:36.250Z,98782.07
2023-03-10T01:33:11.738Z,98790.34
2023-03-10T01:35:43.820Z,98781.44
2023-03-10T01:38:17.047Z,98786.36
2023-03-10T01:40:51.717Z,98780.47
2023-03-10T01:43:31.406Z,98787.19
2023-03-10T01:46:27.225Z,98780.30
2023-03-10T01:49:05.548Z,98773.44
2023-03-10T01:51:41.034Z,98760.14
2023-03-10T01:54:18.580Z,98756.80
2023-03-10T01:56:52.628Z,98751.40
2023-03-10T01:59:24.747Z,98747.97
2023-03-10T02:01:59.514Z,98736.01
2023-03-10T02:04:43.939Z,98740.05
2023-03-10T02:07:20.378Z,98733.96
2023-03-10T02:09:54.985Z,98731.45
2023-03-10T02:12:28.621Z,98721.58
2023-03-10T02:15:02.192Z,98715.98
2023-03-10T02:17:36.847Z,98721.66
2023-03-10T02:20:39.613Z,98724.59
2023-03-10T02:23:17.435Z,98716.31
2023-03-10T02:25:58.223Z,98717.61
2023-03-10T02:28:31.268Z,98723.75
2023-03-10T02:31:05.072Z,98719.56
2023-03-10T02:33:40.258Z,98730.08
2023-03-10T02:36:20.956Z,98734.09
2023-03-10T02:38:53.978Z,98745.91
2023-03-10T02:41:37.611Z,98745.61
2023-03-10T02:44:15.075Z,98745.53
2023-03-10T02:46:48.119Z,98757.44
2023-03-10T02:49:23.756Z,98757.25
2023-03-10T02:51:58.213Z,98757.33
2023-03-10T02:54:30.760Z,98760.49
2023-03-10T02:57:03.397Z,98761.38
2023-03-10T02:59:36.603Z,98759.58
2023-03-10T03:02:10.541Z,98758.02
2023-03-10T03:04:44.122Z,98757.72
2023-03-10T03:07:17.136Z,98759.17
2023-03-10T03:09:50.391Z,98751.05
2023-03-10T03:12:23.347Z,98743.92
2023-03-10T03:14:56.887Z,98742.63
2023-03-10T03:17:30.236Z,98736.52
2023-03-10T03:20:03.058Z,98738.39
2023-03-10T03:22:36.953Z,98742.28
2023-03-10T03:25:11.814Z,98729.31
2023-03-10T03:27:45.865Z,98740.64
2023-03-10T03:30:26.347Z,98732.33
2023-03-10T03:32:59.745Z,98724.55
2023-03-10T03:35:36.203Z,98730.27
2023-03-10T03:38:09.608Z,98732.48
2023-03-10T03:40:44.622Z,98733.51
2023-03-10T03:43:17.884Z,98733.73
2023-03-10T03:45:51.730Z,98738.16
2023-03-10T03:48:25.597Z,98736.14
2023-03-10T03:50:58.568Z,98734.04
2023-03-10T03:53:34.293Z,98734.65
2023-03-10T03:56:08.475Z,98738.62
2023-03-10T03:58:43.308Z,98743.87
2023-03-10T04:01:17.834Z,98743.16
2023-03-10T04:03:52.460Z,98747.27
2023-03-10T04:06:25.442Z,98748.83
2023-03-10T04:08:59.009Z,98751.15
2023-03-10T04:11:33.216Z,98755.27
2023-03-10T04:14:07.088Z,98775.41
2023-03-10T04:16:40.820Z,98795.71
2023-03-10T04:19:14.315Z,98807.73
2023-03-10T04:21:49.106Z,98807.59
2023-03-10T04:24:22.268Z,98790.07
2023-03-10T04:26:56.446Z,98793.39
2023-03-10T04:29:29.827Z,98790.73
2023-03-10T04:32:05.811Z,98786.98
2023-03-10T04:34:41.344Z,98789.80
2023-03-10T04:37:15.815Z,98794.83
2023-03-10T04:39:49.393Z,98797.55
2023-03-10T04:42:22.526Z,98789.52
2023-03-10T04:44:57.201Z,98787.39
2023-03-10T04:47:30.670Z,98783.26
2023-03-10T04:50:07.092Z,98777.52
2023-03-10T04:52:41.592Z,98777.81
2023-03-10T04:55:16.274Z,98806.25
2023-03-10T04:57:48.854Z,98816.39
2023-03-10T05:00:22.471Z,98828.55
2023-03-10T05:02:56.117Z,98797.88
2023-03-10T05:05:29.307Z,98796.86
2023-03-10T05:08:04.108Z,98802.34
2023-03-10T05:10:39.508Z,98799.55
2023-03-10T05:13:13.196Z,98803.59
2023-03-10T05:15:47.592Z,98802.36
2023-03-10T05:18:21.088Z,98792.99
2023-03-10T05:20:59.664Z,98800.19
2023-03-10T05:23:34.141Z,98806.83
2023-03-10T05:26:09.249Z,98803.07
2023-03-10T05:28:43.281Z,98812.45
2023-03-10T05:31:20.129Z,98821.41
2023-03-10T05:33:54.195Z,98813.75
2023-03-10T05:36:27.850Z,98815.40
2023-03-10T05:39:00.803Z,98819.89
2023-03-10T05:41:35.362Z,98826.11
2023-03-10T05:44:08.369Z,98838.58
2023-03-10T05:46:42.125Z,98843.92
2023-03-10T05:49:15.388Z,98848.34
2023-03-10T05:51:48.773Z,98854.98
2023-03-10T05:54:21.845Z,98857.48
2023-03-10T05:56:55.078Z,98847.81
2023-03-10T05:59:29.198Z,98851.17
2023-03-10T06:02:02.262Z,98848.22
2023-03-10T06:04:35.224Z,98844.94
2023-03-10T06:07:09.073Z,98841.25
2023-03-10T06:09:42.022Z,98848.34
2023-03-10T06:12:15.582Z,98853.02
2023-03-10T06:14:49.111Z,98857.17
2023-03-10T06:17:22.349Z,98855.28
2023-03-10T06:19:55.333Z,98856.36
2023-03-10T06:22:31.070Z,98832.27
2023-03-10T06:25:03.096Z,98826.49
2023-03-10T06:27:36.909Z,98825.23
2023-03-10T06:30:11.734Z,98818.77
2023-03-10T06:32:46.451Z,98812.77
2023-03-10T06:35:19.916Z,98817.19
2023-03-10T06:37:53.601Z,98814.59
2023-03-10T06:40:26.507Z,98815.91
2023-03-10T06:42:59.606Z,98812.95
2023-03-10T06:45:33.147Z,98816.80
2023-03-10T06:48:06.579Z,98834.50
2023-03-10T06:50:43.725Z,98838.95
2023-03-10T06:53:20.098Z,98840.38
2023-03-10T06:56:03.143Z,98835.98
2023-03-10T06:58:38.410Z,98837.47
2023-03-10T07:01:13.865Z,98840.80
2023-03-10T07:03:46.906Z,98843.64
2023-03-10T07:06:20.383Z,98840.73
2023-03-10T07:08:54.746Z,98836.29
2023-03-10T07:11:28.477Z,98836.86
2023-03-10T07:14:01.329Z,98841.38
2023-03-10T07:16:34.437Z,98840.52
2023-03-10T07:19:08.000Z,98840.24
2023-03-10T07:21:41.090Z,98842.48
2023-03-10T07:24:14.880Z,98841.66
2023-03-10T07:26:48.148Z,98843.41
2023-03-10T07:29:21.472Z,98836.13
2023-03-10T07:31:55.595Z,98834.18
2023-03-10T07:34:29.639Z,98836.59
2023-03-10T07:37:03.420Z,98839.48
2023-03-10T07:39:37.017Z,98834.11
2023-03-10T07:42:10.289Z,98831.78
2023-03-10T07:44:43.473Z,98838.64
2023-03-10T07:47:16.646Z,98837.73
2023-03-10T07:49:49.678Z,98845.11
2023-03-10T07:52:23.016Z,98834.18
2023-03-10T07:54:56.094Z,98834.55
2023-03-10T07:57:30.679Z,98835.84
2023-03-10T08:00:09.520Z,98841.45
2023-03-10T08:02:45.749Z,98851.38
2023-03-10T08:05:19.258Z,98862.53
2023-03-10T08:07:52.881Z,98868.48
2023-03-10T08:10:26.132Z,98858.22
2023-03-10T08:12:58.849Z,98863.22
2023-03-10T08:15:32.247Z,98862.15
2023-03-10T08:18:05.972Z,98863.69
2023-03-10T08:20:40.713Z,98871.20
2023-03-10T08:23:14.134Z,98878.23
2023-03-10T08:25:48.217Z,98888.39
2023-03-10T08:28:21.010Z,98898.57
2023-03-10T08:31:04.460Z,98905.34
2023-03-10T08:33:30.953Z,98899.87
2023-03-10T08:36:10.824Z,98902.20
2023-03-10T08:38:45.195Z,98903.29
2023-03-10T08:41:23.030Z,98904.48
2023-03-10T08:43:57.916Z,98897.48
2023-03-10T08:46:33.324Z,98893.91
2023-03-10T08:49:06.768Z,98890.67
2023-03-10T08:51:40.065Z,98891.01
2023-03-10T08:54:19.001Z,98890.91
2023-03-10T08:56:52.649Z,98894.29
2023-03-10T08:59:25.606Z,98895.36
2023-03-10T09:01:59.193Z,98894.30
2023-03-10T09:04:32.050Z,98895.33
2023-03-10T09:07:05.017Z,98891.52
2023-03-10T09:09:38.132Z,98897.83
2023-03-10T09:12:11.253Z,98899.88
2023-03-10T09:14:44.281Z,98894.49
2023-03-10T09:17:17.229Z,98894.75
2023-03-10T09:19:50.174Z,98893.19
2023-03-10T09:22:24.156Z,98893.33
2023-03-10T09:24:59.453Z,98895.58
2023-03-10T09:27:31.665Z,98894.38
2023-03-10T09:30:05.661Z,98894.05
2023-03-10T09:32:39.646Z,98895.93
2023-03-10T09:35:13.667Z,98899.16
2023-03-10T09:37:47.751Z,98889.77
2023-03-10T09:40:22.032Z,98887.75
2023-03-10T09:43:02.344Z,98880.94
2023-03-10T09:46:04.597Z,98885.44
2023-03-10T09:49:10.214Z,98882.09
2023-03-10T09:51:47.777Z,98882.74
2023-03-10T09:55:03.970Z,98891.23
2023-03-10T09:57:37.517Z,98886.56
2023-03-10T10:00:11.763Z,98884.11
2023-03-10T10:02:47.764Z,98879.41
2023-03-10T10:05:28.349Z,98873.80
2023-03-10T10:08:07.461Z,98882.23
2023-03-10T10:10:41.064Z,98876.62
2023-03-10T10:13:17.810Z,98869.58
2023-03-10T10:16:13.097Z,98877.94
2023-03-10T10:18:46.676Z,98872.67
2023-03-10T10:21:40.353Z,98870.48
2023-03-10T10:24:04.874Z,98871.80
2023-03-10T10:26:38.361Z,98869.19
2023-03-10T10:29:24.453Z,98863.95
2023-03-10T10:32:13.649Z,98864.80
2023-03-10T10:34:49.538Z,98866.97
2023-03-10T10:37:40.199Z,98862.98
2023-03-10T10:40:30.123Z,98864.76
2023-03-10T10:43:07.948Z,98860.38
2023-03-10T10:45:42.780Z,98858.63
2023-03-10T10:48:43.796Z,98860.86
2023-03-10T10:51:34.291Z,98863.55
2023-03-10T10:54:29.891Z,98866.59
2023-03-10T10:57:06.125Z,98855.22
2023-03-10T10:59:39.950Z,98857.05
2023-03-10T11:02:35.952Z,98861.09
2023-03-10T11:05:19.492Z,98852.86
2023-03-10T11:07:52.989Z,98847.66
2023-03-10T11:10:29.374Z,98848.20
2023-03-10T11:13:07.490Z,98845.62
2023-03-10T11:15:56.118Z,98848.33
2023-03-10T11:18:44.275Z,98844.45
2023-03-10T11:21:36.958Z,98834.36
2023-03-10T11:24:27.608Z,98834.02
2023-03-10T11:27:17.381Z,98831.06
2023-03-10T11:30:04.873Z,98832.94
2023-03-10T11:33:00.725Z,98834.80
2023-03-10T11:35:46.328Z,98844.56
2023-03-10T11:38:45.716Z,98842.41
2023-03-10T11:41:26.335Z,98834.53
2023-03-10T11:44:22.687Z,98834.99
2023-03-10T11:47:01.662Z,98833.73
2023-03-10T11:49:44.355Z,98833.36
2023-03-10T11:52:22.799Z,98839.86
2023-03-10T11:55:07.416Z,98839.86
2023-03-10T11:57:44.899Z,98838.09
2023-03-10T12:00:28.680Z,98836.41
2023-03-10T12:03:18.521Z,98832.52
2023-03-10T12:05:59.392Z,98832.63
2023-03-10T12:08:35.890Z,98837.15
2023-03-10T12:11:14.200Z,98836.33
2023-03-10T12:13:54.079Z,98844.69
2023-03-10T12:16:33.324Z,98838.52
2023-03-10T12:19:07.871Z,98837.65
2023-03-10T12:21:46.388Z,98848.58
2023-03-10T12:25:01.696Z,98848.11
2023-03-10T12:28:22.839Z,98846.30
2023-03-10T12:31:19.681Z,98846.22
2023-03-10T12:34:18.391Z,98851.42
2023-03-10T12:37:12.556Z,98850.05
2023-03-10T12:39:47.153Z,98852.19
2023-03-10T12:42:37.165Z,98860.86
2023-03-10T12:45:33.111Z,98860.36
2023-03-10T12:48:15.866Z,98857.25
2023-03-10T12:50:56.702Z,98855.47
2023-03-10T12:53:49.251Z,98861.12
2023-03-10T12:56:36.963Z,98858.89
2023-03-10T13:04:06.138Z,98861.81
2023-03-10T13:07:02.443Z,98861.89
2023-03-10T13:09:43.954Z,98860.70
2023-03-10T13:12:40.327Z,98867.81
2023-03-10T13:15:25.286Z,98867.88
2023-03-10T13:18:19.692Z,98870.97
2023-03-10T13:20:54.212Z,98873.23
2023-03-10T13:23:34.854Z,98871.92
2023-03-10T13:26:17.570Z,98877.19
2023-03-10T13:29:09.933Z,98868.78
2023-03-10T13:31:55.064Z,98869.18
2023-03-10T13:34:31.638Z,98861.68
2023-03-10T13:37:11.590Z,98875.20
2023-03-10T13:39:46.425Z,98868.13
2023-03-10T13:42:42.971Z,98863.65
2023-03-10T13:45:05.354Z,98869.73
2023-03-10T13:47:39.089Z,98870.53
2023-03-10T13:50:15.896Z,98866.56
2023-03-10T13:53:00.570Z,98869.17
2023-03-10T13:55:35.831Z,98863.47
2023-03-10T13:58:09.116Z,98860.38
2023-03-10T14:00:44.228Z,98875.23
2023-03-10T14:03:17.686Z,98868.17
2023-03-10T14:05:52.543Z,98862.87
2023-03-10T14:08:32.360Z,98867.23
2023-03-10T14:11:37.032Z,98872.83
2023-03-10T14:14:12.535Z,98875.41
2023-03-10T14:16:52.680Z,98873.61
2023-03-10T14:19:48.424Z,98880.56
2023-03-10T14:22:35.749Z,98887.11
2023-03-10T14:25:17.942Z,98893.64
2023-03-10T14:28:03.205Z,98895.75
2023-03-10T14:30:38.154Z,98889.07
2023-03-10T14:33:16.579Z,98895.62
2023-03-10T14:35:50.288Z,98902.98
2023-03-10T14:38:23.879Z,98909.53
2023-03-10T14:40:57.260Z,98921.78
2023-03-10T14:43:31.028Z,98920.88
2023-03-10T14:46:06.181Z,98927.83
2023-03-10T14:48:42.226Z,98920.32
2023-03-10T14:51:32.598Z,98921.58
2023-03-10T14:53:53.516Z,98928.48
2023-03-10T14:56:26.939Z,98926.17
2023-03-10T14:59:01.422Z,98935.69
2023-03-10T15:01:34.348Z,98932.94
2023-03-10T15:04:07.673Z,98935.88
2023-03-10T15:06:40.916Z,98933.06
2023-03-10T15:09:14.534Z,98940.38
2023-03-10T15:11:47.809Z,98942.07
2023-03-10T15:14:21.971Z,98949.85
2023-03-10T15:16:55.772Z,98944.44
2023-03-10T15:19:29.866Z,98955.28
2023-03-10T15:22:02.610Z,98954.23
2023-03-10T15:24:37.425Z,98957.09
2023-03-10T15:27:14.970Z,98963.87
2023-03-10T15:29:48.608Z,98968.52
2023-03-10T15:32:22.022Z,98973.58
2023-03-10T15:34:56.393Z,98979.08
2023-03-10T15:37:29.252Z,98980.75
2023-03-10T15:40:02.067Z,98979.77
2023-03-10T15:42:35.640Z,98980.49
2023-03-10T15:45:09.488Z,98976.39
2023-03-10T15:47:43.242Z,98978.43
2023-03-10T15:50:21.235Z,98992.22
2023-03-10T15:52:57.174Z,98996.39
2023-03-10T15:55:31.145Z,98996.67
2023-03-10T15:58:04.020Z,99000.35
2023-03-10T16:00:37.536Z,98995.34
2023-03-10T16:03:11.511Z,99002.23
2023-03-10T16:05:50.752Z,99002.03
2023-03-10T16:08:23.985Z,99008.41
2023-03-10T16:10:57.871Z,99014.73
2023-03-10T16:13:32.891Z,99019.02
2023-03-10T16:16:09.308Z,99019.76
2023-03-10T16:18:44.109Z,99023.22
2023-03-10T16:21:32.202Z,99025.39
2023-03-10T16:24:09.757Z,99025.73
2023-03-10T16:26:44.726Z,99026.95
2023-03-10T16:29:20.164Z,99031.67
2023-03-10T16:31:54.442Z,99033.28
2023-03-10T16:34:28.977Z,99037.95
2023-03-10T16:37:02.994Z,99043.94
2023-03-10T16:39:38.275Z,99045.63
2023-03-10T16:42:12.643Z,99056.58
2023-03-10T16:44:45.541Z,99057.89
2023-03-10T16:47:18.930Z,99067.45
2023-03-10T16:49:52.542Z,99066.58
2023-03-10T16:52:25.875Z,99064.80
2023-03-10T16:55:04.632Z,99074.83
2023-03-10T16:57:37.894Z,99073.41
2023-03-10T17:00:12.589Z,99071.48
2023-03-10T17:02:46.121Z,99079.67
2023-03-10T17:05:19.538Z,99073.86
2023-03-10T17:07:56.268Z,99070.70
2023-03-10T17:10:29.565Z,99064.44
2023-03-10T17:13:02.547Z,99072.15
2023-03-10T17:15:36.518Z,99064.59
2023-03-10T17:18:10.133Z,99064.05
2023-03-10T17:20:43.527Z,99061.77
2023-03-10T17:23:17.496Z,99058.52
2023-03-10T17:25:50.736Z,99051.77
2023-03-10T17:28:23.944Z,99050.70
2023-03-10T17:30:56.858Z,99055.25
2023-03-10T17:33:30.236Z,99054.64
2023-03-10T17:36:13.205Z,99056.19
2023-03-10T17:38:47.161Z,99054.34
2023-03-10T17:41:20.186Z,99055.00
2023-03-10T17:43:55.986Z,99051.84
2023-03-10T17:46:31.452Z,99062.19
2023-03-10T17:49:05.998Z,99060.83
2023-03-10T17:51:41.065Z,99072.06
2023-03-10T17:54:17.640Z,99070.64
2023-03-10T17:56:51.076Z,99069.93
2023-03-10T17:59:24.125Z,99078.86
2023-03-10T18:01:56.958Z,99083.88
2023-03-10T18:04:30.857Z,99080.05
2023-03-10T18:07:04.501Z,99084.14
2023-03-10T18:09:41.700Z,99087.01
2023-03-10T18:12:14.644Z,99091.03
2023-03-10T18:14:48.545Z,99097.16
2023-03-10T18:17:21.764Z,99098.06
2023-03-10T18:19:56.339Z,99096.95
2023-03-10T18:22:29.907Z,99089.81
2023-03-10T18:25:04.250Z,99091.43
2023-03-10T18:27:37.844Z,99086.58
2023-03-10T18:30:14.226Z,99088.77
2023-03-10T18:32:47.843Z,99089.55
2023-03-10T18:35:21.548Z,99091.25
2023-03-10T18:37:55.699Z,99092.92
2023-03-10T18:40:29.277Z,99090.95
2023-03-10T18:43:02.262Z,99094.56
2023-03-10T18:45:35.906Z,99092.98
2023-03-10T18:48:09.823Z,99090.59
2023-03-10T18:50:43.031Z,99095.75
2023-03-10T18:53:16.247Z,99093.14
2023-03-10T18:55:49.036Z,99091.77
2023-03-10T18:58:23.316Z,99095.63
2023-03-10T19:00:56.593Z,99093.68
2023-03-10T19:03:33.394Z,99101.50
2023-03-10T19:06:07.366Z,99110.77
2023-03-10T19:08:41.587Z,99111.42
2023-03-10T19:11:15.574Z,99115.95
2023-03-10T19:13:48.535Z,99128.73
2023-03-10T19:16:22.266Z,99127.66
2023-03-10T19:18:55.051Z,99136.07
2023-03-10T19:21:28.032Z,99133.39
2023-03-10T19:24:00.835Z,99131.50
2023-03-10T19:26:34.246Z,99125.27
2023-03-10T19:29:07.302Z,99130.88
2023-03-10T19:31:40.896Z,99128.27
2023-03-10T19:34:14.375Z,99131.91
2023-03-10T19:36:47.532Z,99143.57
2023-03-10T19:39:22.710Z,99140.02
2023-03-10T19:41:55.922Z,99146.19
2023-03-10T19:44:29.766Z,99142.85
2023-03-10T19:47:02.791Z,99155.04
2023-03-10T19:49:36.448Z,99145.96
2023-03-10T19:52:09.326Z,99138.00
2023-03-10T19:54:42.411Z,99137.45
2023-03-10T19:57:15.386Z,99135.86
2023-03-10T19:59:49.058Z,99145.68
2023-03-10T20:02:21.868Z,99145.81
2023-03-10T20:04:55.042Z,99146.70
2023-03-10T20:07:28.090Z,99150.88
2023-03-10T20:10:01.466Z,99148.80
2023-03-10T20:12:35.004Z,99151.82
2023-03-10T20:15:09.931Z,99148.37
2023-03-10T20:17:43.431Z,99147.92
2023-03-10T20:20:18.663Z,99143.66
2023-03-10T20:22:52.666Z,99138.16
2023-03-10T20:25:27.448Z,99149.58
2023-03-10T20:28:00.461Z,99149.50
2023-03-10T20:30:33.812Z,99141.77
2023-03-10T20:33:07.704Z,99140.81
2023-03-10T20:35:41.564Z,99143.27
2023-03-10T20:38:15.146Z,99140.94
2023-03-10T20:40:50.203Z,99139.34
2023-03-10T20:43:23.148Z,99142.23
2023-03-10T20:45:56.475Z,99138.38
2023-03-10T20:48:30.045Z,99129.78
2023-03-10T20:51:03.960Z,99138.42
2023-03-10T20:53:38.258Z,99134.98
2023-03-10T20:56:11.803Z,99139.30
2023-03-10T20:58:44.901Z,99139.30
2023-03-10T21:01:23.066Z,99135.97
2023-03-10T21:03:56.846Z,99132.00
2023-03-10T21:06:30.592Z,99136.13
2023-03-10T21:09:06.326Z,99125.92
2023-03-10T21:11:40.982Z,99129.28
2023-03-10T21:14:14.838Z,99127.83
2023-03-10T21:16:47.950Z,99132.61
2023-03-10T21:19:21.412Z,99125.96
2023-03-10T21:21:55.062Z,99127.76
2023-03-10T21:24:28.061Z,99124.31
2023-03-10T21:27:01.397Z,99127.48
2023-03-10T21:29:37.041Z,99130.69
2023-03-10T21:32:10.306Z,99131.83
2023-03-10T21:34:43.245Z,99133.20
2023-03-10T21:37:16.228Z,99130.77
2023-03-10T21:39:51.200Z,99129.20
2023-03-10T21:42:24.049Z,99126.11
2023-03-10T21:44:57.626Z,99133.02
2023-03-10T21:47:30.449Z,99139.78
2023-03-10T21:50:04.615Z,99130.88
2023-03-10T21:52:37.944Z,99134.45
2023-03-10T21:55:18.658Z,99130.70
2023-03-10T21:57:52.189Z,99133.98
2023-03-10T22:00:25.020Z,99135.58
2023-03-10T22:02:58.494Z,99137.64
2023-03-10T22:05:31.918Z,99141.22
2023-03-10T22:08:05.363Z,99141.53
2023-03-10T22:10:38.627Z,99150.25
2023-03-10T22:13:11.844Z,99155.20
2023-03-10T22:15:45.374Z,99155.13
2023-03-10T22:18:18.816Z,99152.11
2023-03-10T22:20:51.608Z,99143.90
2023-03-10T22:24:25.236Z,99142.52
2023-03-10T22:27:01.794Z,99141.89
2023-03-10T22:29:35.517Z,99145.21
2023-03-10T22:32:09.317Z,99152.50
2023-03-10T22:34:42.462Z,99158.73
2023-03-10T22:37:15.780Z,99159.70
2023-03-10T22:39:49.778Z,99166.78
2023-03-10T22:42:23.909Z,99158.02
2023-03-10T22:44:57.641Z,99163.05
2023-03-10T22:47:30.898Z,99160.28
2023-03-10T22:50:05.856Z,99168.95
2023-03-10T22:52:39.290Z,99172.38
2023-03-10T22:55:19.379Z,99177.78
2023-03-10T22:57:53.563Z,99183.30
2023-03-10T23:00:27.785Z,99180.38
2023-03-10T23:03:01.422Z,99179.33
2023-03-10T23:05:35.158Z,99173.89
2023-03-10T23:08:09.881Z,99167.91
2023-03-10T23:10:44.369Z,99164.52
2023-03-10T23:13:20.274Z,99162.63
2023-03-10T23:15:52.536Z,99162.50
2023-03-10T23:18:26.084Z,99164.77
2023-03-10T23:20:59.539Z,99164.09
2023-03-10T23:23:34.439Z,99164.02
2023-03-10T23:26:08.000Z,99164.02
2023-03-10T23:28:42.982Z,99165.23
2023-03-10T23:31:17.316Z,99159.88
2023-03-10T23:33:50.937Z,99158.19
2023-03-10T23:36:24.681Z,99156.56
2023-03-10T23:38:57.906Z,99151.38
2023-03-10T23:41:32.141Z,99150.95
2023-03-10T23:44:05.339Z,99150.23
2023-03-10T23:46:38.725Z,99146.67
2023-03-10T23:49:12.049Z,99152.83
2023-03-10T23:51:46.846Z,99155.43
2023-03-10T23:54:21.712Z,99148.22
2023-03-10T23:56:54.772Z,99150.81
2023-03-10T23:59:28.063Z,99152.91
